Time;durP1;ratioP1;P1;durP2;ratioP2;P2;SDS_P1;SDS_P2;PMS_P1;PMS_P2;Temp;Humidity;BMP_temperature;BMP_pressure;BME280_temperature;BME280_humidity;BME280_pressure;Samples;Min_cycle;Max_cycle;Signal;HPM_P1;HPM_P2
2021/08/16 00:02:47;;;;;;;9.77;6.47;;;;;;;17.12;67.86;99626.80;154278;1101;103147;-81
2021/08/16 00:05:49;;;;;;;9.13;6.30;;;;;;;17.18;67.81;99621.38;154463;1101;103164;-80
2021/08/16 00:08:52;;;;;;;8.17;6.13;;;;;;;17.22;67.68;99619.91;154630;1101;103122;-80
2021/08/16 00:11:55;;;;;;;9.17;6.80;;;;;;;17.17;67.83;99621.61;154282;1101;103560;-84
2021/08/16 00:14:58;;;;;;;10.80;7.10;;;;;;;17.13;67.71;99623.90;154027;1093;103191;-83
2021/08/16 00:18:02;;;;;;;9.93;6.47;;;;;;;17.10;67.58;99608.14;154111;1101;104689;-82
2021/08/16 00:21:05;;;;;;;8.23;5.80;;;;;;;17.06;68.01;99601.52;154119;1101;103211;-83
2021/08/16 00:24:08;;;;;;;10.07;5.70;;;;;;;17.08;68.06;99607.52;154216;1101;103117;-83
2021/08/16 00:27:11;;;;;;;10.23;5.83;;;;;;;17.06;68.34;99610.42;154059;1093;103125;-83
2021/08/16 00:30:15;;;;;;;9.57;5.43;;;;;;;17.10;67.99;99604.63;154143;1093;103125;-83
2021/08/16 00:33:18;;;;;;;6.78;5.55;;;;;;;17.03;67.76;99604.63;154075;1101;103193;-84
2021/08/16 00:36:21;;;;;;;8.63;5.87;;;;;;;16.97;68.08;99608.98;154014;1101;103228;-84
2021/08/16 00:39:23;;;;;;;10.63;6.37;;;;;;;16.91;68.10;99601.75;154154;1101;103151;-83
2021/08/16 00:42:27;;;;;;;10.07;6.00;;;;;;;16.82;68.33;99595.77;154074;1093;103121;-82
2021/08/16 00:45:30;;;;;;;7.50;5.47;;;;;;;16.80;68.33;99600.52;154101;1093;103252;-83
2021/08/16 00:48:33;;;;;;;8.33;5.43;;;;;;;16.80;68.14;99600.52;154189;1093;103126;-80
2021/08/16 00:51:37;;;;;;;8.30;5.53;;;;;;;16.76;68.13;99604.64;154112;1093;103181;-82
2021/08/16 00:54:41;;;;;;;7.37;5.93;;;;;;;16.72;68.17;99598.02;154160;1093;103133;-81
2021/08/16 00:57:45;;;;;;;8.40;6.13;;;;;;;16.67;68.58;99589.75;154080;1101;103130;-81
2021/08/16 01:00:47;;;;;;;7.25;5.68;;;;;;;16.63;68.34;99588.52;154213;1101;103113;-84
2021/08/16 01:03:50;;;;;;;7.70;5.37;;;;;;;16.55;68.50;99581.48;154021;1093;103576;-82
2021/08/16 01:06:53;;;;;;;7.30;5.70;;;;;;;16.50;68.44;99581.27;154061;1101;103256;-84
2021/08/16 01:09:56;;;;;;;6.00;5.13;;;;;;;16.51;68.52;99579.39;154111;1101;103101;-82
2021/08/16 01:13:00;;;;;;;7.57;5.37;;;;;;;16.55;68.63;99572.55;154073;1101;103231;-81
2021/08/16 01:16:05;;;;;;;6.57;5.43;;;;;;;16.53;68.73;99567.37;154079;1094;103121;-80
2021/08/16 01:19:09;;;;;;;7.60;5.88;;;;;;;16.48;68.54;99570.70;154174;1101;103115;-82
2021/08/16 01:22:11;;;;;;;7.73;5.75;;;;;;;16.45;68.91;99554.95;154049;1101;103221;-79
2021/08/16 01:25:14;;;;;;;8.03;5.27;;;;;;;16.42;68.77;99541.92;153951;1101;103188;-84
2021/08/16 01:28:18;;;;;;;7.40;5.27;;;;;;;16.47;69.04;99543.97;154132;1101;103189;-82
2021/08/16 01:31:21;;;;;;;10.07;5.37;;;;;;;16.49;68.98;99539.20;154146;1101;103122;-82
2021/08/16 01:34:24;;;;;;;8.65;5.40;;;;;;;16.51;69.09;99544.39;154114;1101;103152;-83
2021/08/16 01:37:27;;;;;;;8.10;5.77;;;;;;;16.49;69.21;99539.20;154054;1093;103269;-82
2021/08/16 01:40:30;;;;;;;8.33;5.83;;;;;;;16.47;69.47;99531.36;154150;1093;103188;-82
2021/08/16 01:43:34;;;;;;;7.47;5.40;;;;;;;16.48;69.38;99524.92;154098;1101;103192;-84
2021/08/16 01:46:37;;;;;;;6.23;4.88;;;;;;;16.51;69.43;99525.53;154119;1101;103190;-82
2021/08/16 01:49:39;;;;;;;8.63;5.97;;;;;;;16.53;69.16;99520.77;154079;1093;103131;-82
2021/08/16 01:52:42;;;;;;;7.45;5.60;;;;;;;16.56;69.39;99517.66;154040;1101;103262;-84
2021/08/16 01:55:45;;;;;;;10.13;5.90;;;;;;;16.60;69.49;99508.94;154117;1094;103122;-84
2021/08/16 01:58:48;;;;;;;7.97;5.80;;;;;;;16.63;69.78;99507.72;154091;1101;103185;-79
2021/08/16 02:01:50;;;;;;;9.53;5.43;;;;;;;16.63;69.73;99510.41;154085;1093;103138;-82
2021/08/16 02:04:53;;;;;;;7.83;5.40;;;;;;;16.62;69.57;99508.73;154094;1101;103109;-80
2021/08/16 02:07:58;;;;;;;9.27;5.73;;;;;;;16.63;69.76;99515.80;154166;1101;103263;-79
2021/08/16 02:11:04;;;;;;;8.00;5.45;;;;;;;16.66;69.75;99518.05;154060;1101;103347;-83
2021/08/16 02:14:07;;;;;;;7.40;5.93;;;;;;;16.74;69.82;99515.12;154160;1094;103189;-86
2021/08/16 02:17:10;;;;;;;6.73;5.60;;;;;;;16.78;70.11;99510.98;154130;1101;103188;-80
2021/08/16 02:20:13;;;;;;;8.10;5.80;;;;;;;16.77;70.04;99498.55;154047;1101;103189;-83
2021/08/16 02:23:16;;;;;;;7.95;5.30;;;;;;;16.77;70.27;99498.55;154436;1101;103179;-85
2021/08/16 02:26:19;;;;;;;6.65;5.50;;;;;;;16.78;70.20;99493.97;154046;1093;103298;-88
2021/08/16 02:29:22;;;;;;;7.00;5.80;;;;;;;16.80;70.36;99484.66;154094;1093;103208;-83
2021/08/16 02:32:25;;;;;;;7.17;5.70;;;;;;;16.84;70.26;99483.22;154090;1100;103109;-80
2021/08/16 02:35:27;;;;;;;7.93;5.57;;;;;;;16.86;70.34;99489.22;154115;1101;103120;-81
2021/08/16 02:38:30;;;;;;;9.07;5.50;;;;;;;16.83;70.73;99481.55;154172;1101;103211;-81
2021/08/16 02:41:33;;;;;;;6.77;4.80;;;;;;;16.87;70.46;99488.16;154479;1093;103254;-83
2021/08/16 02:44:36;;;;;;;7.53;5.10;;;;;;;16.90;70.68;99488.78;154337;1101;103190;-79
2021/08/16 02:47:39;;;;;;;7.60;5.80;;;;;;;16.91;70.78;99487.75;154135;1101;103505;-81
2021/08/16 02:50:42;;;;;;;7.37;5.93;;;;;;;16.95;70.93;99473.63;154375;1093;103092;-82
2021/08/16 02:53:45;;;;;;;7.00;6.20;;;;;;;16.98;70.95;99465.13;154015;1101;103213;-81
2021/08/16 02:56:48;;;;;;;7.37;5.33;;;;;;;17.01;70.91;99474.64;154084;1101;103192;-82
2021/08/16 02:59:50;;;;;;;8.18;5.15;;;;;;;17.02;71.18;99466.34;154046;1101;103207;-80
2021/08/16 03:02:53;;;;;;;7.67;5.93;;;;;;;17.10;71.12;99465.27;154165;1101;103150;-80
2021/08/16 03:05:56;;;;;;;6.83;5.47;;;;;;;17.15;71.28;99475.39;154070;1101;103222;-80
2021/08/16 03:08:59;;;;;;;7.60;6.25;;;;;;;17.16;71.28;99467.09;154145;1101;103211;-77
2021/08/16 03:12:02;;;;;;;7.45;5.55;;;;;;;17.16;71.33;99464.41;154005;1101;103484;-78
2021/08/16 03:15:07;;;;;;;9.45;6.00;;;;;;;17.21;71.26;99459.20;154215;1101;103187;-77
2021/08/16 03:18:10;;;;;;;7.43;5.93;;;;;;;17.29;71.52;99465.39;153999;1093;103254;-78
2021/08/16 03:21:12;;;;;;;8.30;6.43;;;;;;;17.35;71.52;99469.91;153977;1101;103240;-78
2021/08/16 03:24:15;;;;;;;7.17;5.93;;;;;;;17.42;71.88;99468.83;153941;1101;103200;-78
2021/08/16 03:27:18;;;;;;;8.77;6.00;;;;;;;17.45;71.89;99479.16;153970;1093;103557;-77
2021/08/16 03:30:21;;;;;;;7.17;5.40;;;;;;;17.51;71.94;99477.47;153945;1093;103111;-78
2021/08/16 03:33:23;;;;;;;6.77;5.30;;;;;;;17.57;71.86;99465.84;153984;1093;103206;-77
2021/08/16 03:36:26;;;;;;;7.27;6.00;;;;;;;17.61;72.08;99474.30;154012;1093;103040;-77
2021/08/16 03:39:29;;;;;;;9.47;6.60;;;;;;;17.67;72.23;99470.74;154025;1101;103464;-77
2021/08/16 03:42:32;;;;;;;9.15;6.60;;;;;;;17.66;72.58;99463.68;153967;1101;103192;-77
2021/08/16 03:45:35;;;;;;;8.15;6.50;;;;;;;17.68;72.55;99458.08;153956;1101;103090;-78
2021/08/16 03:48:38;;;;;;;9.35;7.00;;;;;;;17.74;72.76;99459.89;153982;1093;103189;-78
2021/08/16 03:51:41;;;;;;;9.95;8.50;;;;;;;17.82;72.67;99446.97;153968;1101;103185;-78
2021/08/16 03:54:43;;;;;;;10.87;8.10;;;;;;;17.91;72.83;99449.41;153990;1101;103099;-77
2021/08/16 03:57:46;;;;;;;10.03;7.37;;;;;;;17.99;72.83;99449.94;153916;1101;103121;-78
2021/08/16 04:00:49;;;;;;;9.87;7.20;;;;;;;18.05;73.31;99451.78;153951;1101;103087;-77
2021/08/16 04:03:52;;;;;;;10.55;8.90;;;;;;;18.22;73.26;99460.11;153965;1101;103185;-78
2021/08/16 04:06:55;;;;;;;8.03;7.00;;;;;;;18.40;73.27;99455.81;154051;1101;103122;-78
2021/08/16 04:09:57;;;;;;;9.13;7.10;;;;;;;18.54;73.51;99459.19;153974;1101;103557;-78
2021/08/16 04:13:00;;;;;;;7.77;6.03;;;;;;;18.79;73.31;99469.92;154026;1094;103141;-78
2021/08/16 04:16:03;;;;;;;10.17;7.97;;;;;;;18.99;73.02;99466.98;153957;1101;103093;-79
2021/08/16 04:19:06;;;;;;;10.57;7.47;;;;;;;19.17;72.73;99460.74;154075;1093;103212;-79
2021/08/16 04:22:09;;;;;;;11.85;10.45;;;;;;;19.34;72.86;99458.20;153964;1093;103247;-79
2021/08/16 04:25:14;;;;;;;9.53;7.67;;;;;;;19.43;72.96;99456.82;153975;1093;103464;-79
2021/08/16 04:28:17;;;;;;;12.30;10.53;;;;;;;19.52;73.18;99455.44;153996;1101;103211;-80
2021/08/16 04:31:20;;;;;;;13.43;9.93;;;;;;;19.60;72.86;99451.58;154068;1093;103118;-80
2021/08/16 04:34:23;;;;;;;15.20;11.20;;;;;;;19.69;72.65;99452.05;154044;1101;103110;-79
2021/08/16 04:37:26;;;;;;;14.60;9.50;;;;;;;19.80;72.75;99446.71;153993;1101;103096;-80
2021/08/16 04:40:28;;;;;;;9.65;8.15;;;;;;;19.91;72.43;99444.24;153955;1101;103306;-80
2021/08/16 04:43:31;;;;;;;13.10;10.13;;;;;;;19.94;72.85;99443.78;153994;1093;104688;-79
2021/08/16 04:46:34;;;;;;;8.87;7.53;;;;;;;19.98;72.73;99448.48;154120;1101;103181;-79
2021/08/16 04:49:37;;;;;;;11.30;8.75;;;;;;;20.12;72.43;99448.25;154060;1101;103096;-80
2021/08/16 04:52:40;;;;;;;12.03;10.57;;;;;;;20.23;72.28;99444.72;153946;1093;103151;-79
2021/08/16 04:55:43;;;;;;;13.53;11.85;;;;;;;20.29;72.33;99432.13;154005;1093;103223;-79
2021/08/16 04:58:46;;;;;;;11.28;9.68;;;;;;;20.32;72.16;99429.77;154539;1093;103144;-77
2021/08/16 05:01:50;;;;;;;11.07;8.40;;;;;;;20.40;72.26;99428.58;154594;1093;103240;-79
2021/08/16 05:04:58;;;;;;;11.55;10.30;;;;;;;20.53;72.40;99414.74;154532;1093;103104;-78
2021/08/16 05:08:02;;;;;;;13.20;11.25;;;;;;;20.65;72.39;99416.64;154482;1098;103152;-78
2021/08/16 05:11:06;;;;;;;10.85;9.75;;;;;;;20.76;72.04;99411.17;154582;1098;103156;-79
2021/08/16 05:14:08;;;;;;;11.50;10.10;;;;;;;20.91;71.80;99413.38;154585;1098;103260;-80
2021/08/16 05:17:12;;;;;;;11.40;9.40;;;;;;;20.98;71.67;99411.34;154650;1093;103211;-80
2021/08/16 05:20:16;;;;;;;10.03;8.17;;;;;;;21.03;71.64;99413.32;154658;1093;103189;-79
2021/08/16 05:23:19;;;;;;;10.90;9.67;;;;;;;21.08;71.87;99409.90;154599;1098;103043;-80
2021/08/16 05:26:21;;;;;;;9.93;8.93;;;;;;;21.09;71.63;99408.81;154692;1098;103211;-79
2021/08/16 05:29:24;;;;;;;9.30;8.33;;;;;;;21.11;71.79;99409.39;154623;1098;103195;-79
2021/08/16 05:32:27;;;;;;;17.77;15.90;;;;;;;21.20;71.63;99404.41;154632;1098;103176;-78
2021/08/16 05:35:30;;;;;;;35.23;27.13;;;;;;;21.26;71.53;99409.67;154640;1093;103194;-78
2021/08/16 05:38:32;;;;;;;16.95;14.85;;;;;;;21.31;71.40;99398.92;154559;1093;103188;-78
2021/08/16 05:41:35;;;;;;;39.23;24.83;;;;;;;21.41;71.39;99400.17;154562;1098;103211;-78
2021/08/16 05:44:38;;;;;;;31.67;20.17;;;;;;;21.59;71.36;99390.99;154723;1093;103216;-78
2021/08/16 05:47:41;;;;;;;22.95;15.90;;;;;;;21.66;71.35;99408.77;154803;1093;103260;-77
2021/08/16 05:50:43;;;;;;;20.40;14.70;;;;;;;21.80;71.14;99405.72;154547;1093;103187;-74
2021/08/16 05:53:46;;;;;;;14.67;12.00;;;;;;;21.98;70.95;99404.63;154553;1098;103570;-73
2021/08/16 05:56:49;;;;;;;38.15;18.05;;;;;;;22.14;71.17;99391.02;154529;1093;103483;-74
2021/08/16 05:59:52;;;;;;;44.20;25.83;;;;;;;22.24;71.31;99384.89;154642;1093;103140;-74
2021/08/16 06:02:54;;;;;;;17.57;12.37;;;;;;;22.29;71.18;99384.20;154630;1093;103289;-74
2021/08/16 06:05:57;;;;;;;30.50;16.70;;;;;;;22.38;71.25;99376.41;154569;1098;103200;-74
2021/08/16 06:09:00;;;;;;;21.60;14.50;;;;;;;22.42;70.71;99374.83;154781;1098;103177;-74
2021/08/16 06:12:04;;;;;;;27.98;18.43;;;;;;;22.49;70.84;99375.47;154604;1098;103186;-74
2021/08/16 06:15:08;;;;;;;19.10;13.40;;;;;;;22.55;70.70;99377.17;154589;1098;103129;-74
2021/08/16 06:18:11;;;;;;;13.73;10.40;;;;;;;22.57;70.39;99385.89;154638;1098;103129;-73
2021/08/16 06:21:13;;;;;;;13.20;9.43;;;;;;;22.65;70.58;99376.46;154582;1093;103234;-74
2021/08/16 06:24:16;;;;;;;10.30;8.67;;;;;;;22.74;70.13;99375.76;154600;1093;103189;-74
2021/08/16 06:27:19;;;;;;;8.30;7.15;;;;;;;22.84;69.27;99366.89;154532;1098;103210;-75
2021/08/16 06:30:22;;;;;;;9.47;7.43;;;;;;;22.93;70.15;99378.15;154606;1093;103184;-74
2021/08/16 06:33:25;;;;;;;8.03;7.23;;;;;;;22.99;69.74;99382.56;154607;1093;103186;-74
2021/08/16 06:36:27;;;;;;;8.30;7.30;;;;;;;23.08;69.91;99377.52;154568;1093;103264;-74
2021/08/16 06:39:30;;;;;;;8.27;6.60;;;;;;;23.19;69.57;99378.42;154670;1094;103187;-73
2021/08/16 06:42:34;;;;;;;7.10;6.40;;;;;;;23.39;69.33;99369.64;154600;1093;103192;-74
2021/08/16 06:45:37;;;;;;;6.90;6.20;;;;;;;23.64;69.71;99366.30;154596;1098;103179;-74
2021/08/16 06:48:40;;;;;;;7.08;6.38;;;;;;;23.89;68.87;99363.77;154573;1098;103119;-74
2021/08/16 06:51:43;;;;;;;6.93;6.03;;;;;;;24.13;68.93;99355.18;154564;1098;103123;-74
2021/08/16 06:54:46;;;;;;;6.83;6.20;;;;;;;24.24;68.12;99347.89;154605;1098;103115;-74
2021/08/16 06:57:48;;;;;;;6.93;6.23;;;;;;;24.19;68.06;99348.69;154612;1098;103126;-75
2021/08/16 07:00:51;;;;;;;6.80;6.10;;;;;;;24.11;67.77;99365.53;154569;1093;103126;-75
2021/08/16 07:03:56;;;;;;;8.45;6.30;;;;;;;24.07;68.16;99356.24;154518;1098;103121;-73
2021/08/16 07:06:58;;;;;;;6.80;6.10;;;;;;;23.97;67.98;99361.64;154638;1098;103122;-75
2021/08/16 07:10:01;;;;;;;7.50;6.10;;;;;;;23.93;67.47;99346.91;154624;1098;103177;-74
2021/08/16 07:13:04;;;;;;;7.20;5.87;;;;;;;23.95;67.56;99355.64;154616;1098;103181;-74
2021/08/16 07:16:08;;;;;;;6.97;6.27;;;;;;;23.95;67.72;99347.46;154606;1093;103189;-74
2021/08/16 07:19:10;;;;;;;6.90;6.20;;;;;;;23.94;67.39;99346.63;154638;1094;103107;-74
2021/08/16 07:22:13;;;;;;;6.67;5.90;;;;;;;23.99;67.36;99343.13;154661;1098;103147;-74
2021/08/16 07:25:16;;;;;;;7.60;6.30;;;;;;;24.05;65.94;99333.88;154562;1098;103355;-73
2021/08/16 07:28:19;;;;;;;7.97;6.23;;;;;;;24.14;66.56;99331.49;154684;1098;103212;-74
2021/08/16 07:31:22;;;;;;;6.30;5.70;;;;;;;24.33;66.28;99345.45;154582;1093;103108;-74
2021/08/16 07:34:25;;;;;;;7.55;5.35;;;;;;;24.48;66.29;99349.08;153947;1094;103107;-75
2021/08/16 07:37:27;;;;;;;7.70;5.67;;;;;;;24.75;65.97;99347.27;154607;1098;103463;-73
2021/08/16 07:40:30;;;;;;;7.20;5.65;;;;;;;24.92;65.17;99347.04;154617;1093;103583;-74
2021/08/16 07:43:33;;;;;;;6.30;5.70;;;;;;;25.00;65.23;99355.53;154550;1093;103252;-74
2021/08/16 07:46:36;;;;;;;6.00;5.37;;;;;;;24.97;65.19;99372.44;154609;1093;103181;-74
2021/08/16 07:49:38;;;;;;;6.80;5.20;;;;;;;24.83;65.59;99395.88;154610;1098;103211;-74
2021/08/16 07:52:42;;;;;;;6.43;5.80;;;;;;;24.66;65.43;99416.00;154593;1098;103195;-75
2021/08/16 07:55:45;;;;;;;7.33;5.50;;;;;;;24.45;65.90;99425.15;154607;1093;103107;-74
2021/08/16 07:58:48;;;;;;;6.55;5.90;;;;;;;24.25;65.51;99407.59;154566;1093;103193;-74
2021/08/16 08:01:50;;;;;;;5.83;5.23;;;;;;;24.18;65.58;99384.39;154632;1093;103568;-74
2021/08/16 08:04:54;;;;;;;6.37;5.77;;;;;;;24.14;65.63;99386.81;154563;1098;103121;-74
2021/08/16 08:07:56;;;;;;;6.27;5.00;;;;;;;24.20;65.72;99391.20;154616;1098;103238;-74
2021/08/16 08:10:59;;;;;;;5.83;4.67;;;;;;;24.28;65.27;99409.78;154626;1093;103224;-74
2021/08/16 08:14:02;;;;;;;5.63;5.03;;;;;;;24.41;65.63;99413.94;154574;1098;103345;-74
2021/08/16 08:17:05;;;;;;;6.20;5.13;;;;;;;24.54;65.20;99409.11;154670;1093;103176;-74
2021/08/16 08:20:10;;;;;;;6.27;5.37;;;;;;;24.61;65.28;99396.88;154596;1098;103121;-74
2021/08/16 08:23:13;;;;;;;6.73;5.40;;;;;;;24.61;64.97;99391.41;154631;1098;103103;-75
2021/08/16 08:26:16;;;;;;;6.08;5.45;;;;;;;24.60;65.30;99380.80;154583;1093;103211;-73
2021/08/16 08:29:18;;;;;;;6.10;5.43;;;;;;;24.59;64.82;99379.95;154563;1098;103129;-74
2021/08/16 08:32:21;;;;;;;8.20;5.20;;;;;;;24.61;64.96;99383.23;154594;1098;103253;-73
2021/08/16 08:35:25;;;;;;;5.85;5.20;;;;;;;24.63;64.73;99367.42;154658;1098;103207;-74
2021/08/16 08:38:27;;;;;;;6.30;5.30;;;;;;;24.67;64.51;99368.55;154616;1098;103256;-74
2021/08/16 08:41:31;;;;;;;5.90;5.30;;;;;;;24.78;64.59;99374.03;154631;1098;103266;-74
2021/08/16 08:44:34;;;;;;;5.90;5.30;;;;;;;24.87;63.95;99369.69;154593;1098;103096;-74
2021/08/16 08:47:38;;;;;;;7.87;5.60;;;;;;;24.94;64.46;99367.50;154582;1098;103467;-74
2021/08/16 08:50:40;;;;;;;7.03;5.50;;;;;;;25.04;64.14;99372.19;154615;1093;103278;-73
2021/08/16 08:53:43;;;;;;;6.40;5.20;;;;;;;25.25;63.83;99353.92;154542;1098;103484;-74
2021/08/16 08:56:46;;;;;;;9.00;5.80;;;;;;;25.46;63.10;99349.29;154551;1093;103111;-74
2021/08/16 08:59:49;;;;;;;6.57;5.80;;;;;;;25.69;62.32;99342.44;154583;1098;103184;-74
2021/08/16 09:03:00;;;;;;;5.90;5.30;;;;;;;25.88;63.13;99341.88;154572;1098;103171;-74
2021/08/16 09:06:03;;;;;;;8.03;5.70;;;;;;;26.12;62.34;99342.94;154649;1098;103188;-74
2021/08/16 09:09:07;;;;;;;7.87;5.53;;;;;;;26.31;62.56;99354.09;154611;1098;103124;-75
2021/08/16 09:12:10;;;;;;;6.95;5.63;;;;;;;26.41;61.97;99350.49;154645;1093;103192;-74
2021/08/16 09:15:18;;;;;;;5.93;5.03;;;;;;;26.54;61.69;99351.78;154618;1093;103182;-74
2021/08/16 09:18:30;;;;;;;6.85;5.30;;;;;;;26.63;61.24;99352.88;154567;1098;103281;-75
2021/08/16 09:21:36;;;;;;;6.13;5.20;;;;;;;26.70;60.55;99347.11;154656;1093;103122;-74
2021/08/16 09:24:39;;;;;;;6.13;4.97;;;;;;;26.71;60.86;99348.72;154637;1098;103126;-74
2021/08/16 09:27:46;;;;;;;6.53;5.87;;;;;;;26.71;60.80;99348.72;154587;1098;103209;-74
2021/08/16 09:30:49;;;;;;;8.37;5.20;;;;;;;26.74;61.00;99340.77;154634;1093;103128;-74
2021/08/16 09:33:54;;;;;;;7.15;5.25;;;;;;;26.78;60.08;99339.11;154509;1093;103285;-74
2021/08/16 09:37:01;;;;;;;5.90;5.30;;;;;;;26.81;60.42;99359.61;154645;1094;103211;-74
2021/08/16 09:40:07;;;;;;;6.20;5.03;;;;;;;26.91;60.51;99365.04;154619;1098;103125;-74
2021/08/16 09:43:09;;;;;;;6.23;5.20;;;;;;;27.01;60.10;99383.32;154633;1093;103126;-74
2021/08/16 09:46:17;;;;;;;6.60;5.20;;;;;;;26.96;59.73;99399.77;154562;1093;103146;-74
2021/08/16 09:49:23;;;;;;;6.07;5.10;;;;;;;26.72;59.62;99429.73;154631;1098;103252;-74
2021/08/16 09:52:30;;;;;;;5.20;4.60;;;;;;;26.40;59.75;99437.19;154676;1093;103188;-74
2021/08/16 09:55:34;;;;;;;5.90;4.90;;;;;;;26.04;59.65;99445.48;154632;1098;103189;-74
2021/08/16 09:58:37;;;;;;;7.05;5.30;;;;;;;25.76;59.92;99438.63;154597;1098;103115;-73
2021/08/16 10:01:40;;;;;;;7.53;5.40;;;;;;;25.53;59.87;99441.91;154628;1098;103182;-73
2021/08/16 10:04:43;;;;;;;5.80;5.20;;;;;;;25.26;60.18;99432.84;154852;1098;103176;-73
2021/08/16 10:07:48;;;;;;;11.07;6.07;;;;;;;25.05;61.53;99392.92;154652;1098;103119;-73
2021/08/16 10:10:53;;;;;;;6.13;5.20;;;;;;;24.79;61.71;99356.55;154670;1098;103207;-73
2021/08/16 10:13:57;;;;;;;11.87;9.07;;;;;;;24.89;62.50;99326.58;154692;1098;103476;-74
2021/08/16 10:17:01;;;;;;;13.43;9.57;;;;;;;25.05;62.53;99333.69;154602;1098;103209;-73
2021/08/16 10:20:06;;;;;;;10.63;7.47;;;;;;;25.37;61.94;99362.69;154621;1098;103463;-74
2021/08/16 10:23:22;;;;;;;7.15;6.40;;;;;;;25.58;61.72;99366.23;154665;1098;103125;-74
2021/08/16 10:26:27;;;;;;;7.13;6.33;;;;;;;25.85;61.26;99370.59;154736;1093;103142;-74
2021/08/16 10:29:31;;;;;;;6.93;6.23;;;;;;;26.13;61.76;99360.97;154452;1098;103120;-75
2021/08/16 10:32:34;;;;;;;7.17;6.13;;;;;;;26.47;61.44;99354.84;154678;1098;103197;-75
2021/08/16 10:35:41;;;;;;;6.63;5.83;;;;;;;26.76;61.03;99356.92;154772;1093;103301;-74
2021/08/16 10:38:49;;;;;;;7.53;5.67;;;;;;;26.92;60.36;99357.64;154660;1093;103128;-74
2021/08/16 10:41:52;;;;;;;7.53;5.83;;;;;;;26.98;60.97;99356.50;154657;1093;103211;-74
2021/08/16 10:44:56;;;;;;;7.33;6.33;;;;;;;27.01;61.00;99359.48;154737;1098;103166;-74
2021/08/16 10:48:04;;;;;;;9.13;6.50;;;;;;;26.99;60.55;99345.27;154737;1098;103095;-74
2021/08/16 10:51:10;;;;;;;6.48;5.88;;;;;;;26.95;61.26;99346.94;154752;1098;103285;-74
2021/08/16 10:54:26;;;;;;;6.47;5.67;;;;;;;26.92;60.77;99343.95;154634;1098;103214;-74
2021/08/16 10:57:33;;;;;;;6.23;5.57;;;;;;;26.88;60.58;99343.70;154610;1098;103131;-75
2021/08/16 11:00:36;;;;;;;6.43;5.50;;;;;;;26.82;60.47;99333.89;154675;1098;103484;-74
2021/08/16 11:03:39;;;;;;;6.40;5.68;;;;;;;26.73;60.54;99338.31;154602;1098;103132;-73
2021/08/16 11:06:53;;;;;;;7.60;6.00;;;;;;;26.64;60.42;99327.97;154724;1098;103275;-75
2021/08/16 11:09:58;;;;;;;8.60;6.20;;;;;;;26.61;60.73;99319.50;154629;1098;104698;-77
2021/08/16 11:13:10;;;;;;;8.75;6.38;;;;;;;26.55;60.57;99321.41;154627;1093;103111;-76
2021/08/16 11:16:13;;;;;;;9.63;6.93;;;;;;;26.52;60.30;99313.79;154656;1093;103208;-75
2021/08/16 11:19:15;;;;;;;6.93;6.23;;;;;;;26.46;60.57;99314.89;154611;1098;103195;-75
2021/08/16 11:22:18;;;;;;;8.57;6.60;;;;;;;26.43;60.34;99316.28;154600;1098;103192;-74
2021/08/16 11:25:21;;;;;;;7.63;6.87;;;;;;;26.42;60.85;99311.09;154648;1093;103209;-75
2021/08/16 11:28:27;;;;;;;9.03;7.07;;;;;;;26.42;60.59;99308.34;154618;1093;103195;-75
2021/08/16 11:31:31;;;;;;;6.83;6.07;;;;;;;26.41;59.88;99306.73;154575;1093;103115;-76
2021/08/16 11:34:46;;;;;;;10.55;8.80;;;;;;;26.48;60.58;99296.28;154428;1093;103204;-75
2021/08/16 11:37:49;;;;;;;9.15;7.00;;;;;;;26.56;60.32;99290.23;154495;1098;103256;-73
2021/08/16 11:41:01;;;;;;;7.57;6.77;;;;;;;26.59;59.96;99278.73;154426;1098;103126;-74
2021/08/16 11:44:15;;;;;;;8.87;7.47;;;;;;;26.62;60.38;99286.39;154581;1098;103173;-74
2021/08/16 11:47:28;;;;;;;7.97;6.77;;;;;;;26.69;60.07;99282.52;154648;1098;103121;-74
2021/08/16 11:50:32;;;;;;;7.40;6.70;;;;;;;26.70;60.07;99284.17;154760;1098;104597;-74
2021/08/16 11:53:42;;;;;;;8.80;5.90;;;;;;;26.67;59.62;99265.56;154628;1093;103291;-75
2021/08/16 11:56:52;;;;;;;8.20;6.57;;;;;;;26.72;59.54;99258.14;154630;1093;103564;-75
2021/08/16 11:59:57;;;;;;;7.87;5.67;;;;;;;26.77;59.44;99257.28;154670;1098;103096;-74
2021/08/16 12:03:02;;;;;;;7.40;5.90;;;;;;;26.82;58.38;99252.58;154605;1098;103686;-74
2021/08/16 12:06:10;;;;;;;6.97;6.27;;;;;;;26.83;58.34;99245.22;154411;1098;103158;-74
2021/08/16 12:09:12;;;;;;;6.35;5.58;;;;;;;26.78;58.60;99239.77;153951;1101;103294;-74
2021/08/16 12:12:20;;;;;;;9.17;6.30;;;;;;;26.81;58.91;99245.49;154297;1098;103115;-75
2021/08/16 12:15:24;;;;;;;6.40;5.70;;;;;;;26.86;58.16;99239.15;154401;1098;103182;-74
2021/08/16 12:18:28;;;;;;;7.47;5.67;;;;;;;26.96;58.21;99240.98;154121;1093;103107;-73
2021/08/16 12:21:31;;;;;;;7.08;5.95;;;;;;;26.98;57.51;99239.62;154623;1098;103124;-74
2021/08/16 12:24:35;;;;;;;6.40;5.80;;;;;;;26.99;57.81;99235.76;154570;1093;103253;-75
2021/08/16 12:27:38;;;;;;;7.83;6.20;;;;;;;27.01;57.56;99238.22;154686;1098;103206;-73
2021/08/16 12:30:41;;;;;;;7.07;6.37;;;;;;;27.09;57.87;99240.33;154401;1099;103211;-75
2021/08/16 12:33:57;;;;;;;7.40;6.40;;;;;;;27.17;57.46;99242.44;154722;1098;103070;-74
2021/08/16 12:36:59;;;;;;;7.18;6.30;;;;;;;27.22;57.74;99238.85;154609;1098;103512;-77
2021/08/16 12:40:12;;;;;;;7.40;6.67;;;;;;;27.29;56.69;99228.41;154424;1098;103288;-73
2021/08/16 12:43:15;;;;;;;6.90;6.20;;;;;;;27.37;56.94;99226.97;154434;1098;103140;-75
2021/08/16 12:46:31;;;;;;;6.70;6.00;;;;;;;27.38;56.99;99226.66;154577;1098;103211;-75
2021/08/16 12:49:35;;;;;;;7.40;6.30;;;;;;;27.37;56.05;99221.49;154329;1093;103125;-75
2021/08/16 12:52:39;;;;;;;8.63;6.35;;;;;;;27.38;56.24;99229.39;154722;1098;103156;-75
2021/08/16 12:55:42;;;;;;;7.73;6.47;;;;;;;27.36;56.12;99223.39;154485;1093;103304;-76
2021/08/16 12:58:45;;;;;;;7.83;6.25;;;;;;;27.30;55.59;99224.55;154713;1093;103208;-74
2021/08/16 13:01:55;;;;;;;6.47;5.60;;;;;;;27.37;55.34;99213.27;154332;1098;103192;-75
2021/08/16 13:04:59;;;;;;;7.10;5.57;;;;;;;27.47;55.80;99215.89;154672;1098;103221;-75
2021/08/16 13:08:02;;;;;;;8.50;5.90;;;;;;;27.47;55.30;99213.16;154700;1098;103163;-75
2021/08/16 13:11:05;;;;;;;7.57;6.30;;;;;;;27.41;55.42;99215.13;154657;1098;103186;-74
2021/08/16 13:14:07;;;;;;;7.73;5.70;;;;;;;27.35;55.08;99210.81;154638;1094;103125;-74
2021/08/16 13:17:11;;;;;;;9.43;5.70;;;;;;;27.38;54.96;99203.94;154605;1098;103125;-75
2021/08/16 13:20:13;;;;;;;6.25;5.65;;;;;;;27.44;54.99;99201.95;154668;1098;103190;-75
2021/08/16 13:23:16;;;;;;;6.20;5.40;;;;;;;27.59;54.39;99196.30;154632;1098;103221;-75
2021/08/16 13:26:19;;;;;;;7.23;5.78;;;;;;;27.68;54.43;99188.27;154671;1098;103191;-75
2021/08/16 13:29:22;;;;;;;5.87;5.27;;;;;;;27.66;54.36;99183.08;154667;1093;103122;-74
2021/08/16 13:32:25;;;;;;;5.40;4.70;;;;;;;27.67;53.64;99186.63;154672;1098;103181;-75
2021/08/16 13:35:28;;;;;;;5.87;5.27;;;;;;;27.65;53.59;99178.69;154774;1098;103188;-75
2021/08/16 13:38:30;;;;;;;4.93;4.47;;;;;;;27.61;53.58;99185.87;154710;1093;103591;-75
2021/08/16 13:41:34;;;;;;;5.20;4.70;;;;;;;27.59;53.36;99183.41;154544;1098;103118;-75
2021/08/16 13:44:37;;;;;;;6.03;4.67;;;;;;;27.62;52.78;99184.77;154612;1093;103372;-76
2021/08/16 13:47:39;;;;;;;5.63;4.53;;;;;;;27.68;53.43;99188.27;154745;1098;103121;-75
2021/08/16 13:50:42;;;;;;;5.87;4.57;;;;;;;27.80;52.91;99189.47;154665;1093;103194;-74
2021/08/16 13:53:45;;;;;;;5.53;4.90;;;;;;;27.87;52.97;99188.28;154701;1098;103230;-75
2021/08/16 13:56:48;;;;;;;4.95;4.35;;;;;;;27.96;51.58;99178.33;154672;1098;103188;-74
2021/08/16 13:59:51;;;;;;;7.40;4.40;;;;;;;28.07;52.52;99174.34;154864;1093;103187;-73
2021/08/16 14:02:55;;;;;;;5.03;3.83;;;;;;;28.17;51.72;99182.41;154649;1093;103103;-74